sensor_id;sensor_type;location;lat;lon;timestamp;temperature;humidity
1468;DHT22;727;48.892;9.544;2022-07-23T00:00:09;22.30;99.30
1468;DHT22;727;48.892;9.544;2022-07-23T00:02:36;22.30;99.50
1468;DHT22;727;48.892;9.544;2022-07-23T00:05:03;22.30;98.80
1468;DHT22;727;48.892;9.544;2022-07-23T00:07:30;22.30;98.50
1468;DHT22;727;48.892;9.544;2022-07-23T00:09:57;22.30;97.90
1468;DHT22;727;48.892;9.544;2022-07-23T00:12:23;22.50;97.20
1468;DHT22;727;48.892;9.544;2022-07-23T00:14:50;22.60;95.80
1468;DHT22;727;48.892;9.544;2022-07-23T00:17:18;22.70;95.70
1468;DHT22;727;48.892;9.544;2022-07-23T00:19:45;22.70;95.30
1468;DHT22;727;48.892;9.544;2022-07-23T00:22:12;22.80;94.50
1468;DHT22;727;48.892;9.544;2022-07-23T00:24:39;22.80;94.20
1468;DHT22;727;48.892;9.544;2022-07-23T00:27:05;23.00;91.90
1468;DHT22;727;48.892;9.544;2022-07-23T00:29:32;23.30;90.60
1468;DHT22;727;48.892;9.544;2022-07-23T00:31:59;23.60;89.40
1468;DHT22;727;48.892;9.544;2022-07-23T00:34:27;23.80;88.00
1468;DHT22;727;48.892;9.544;2022-07-23T00:36:53;23.90;86.40
1468;DHT22;727;48.892;9.544;2022-07-23T00:39:20;24.20;84.70
1468;DHT22;727;48.892;9.544;2022-07-23T00:41:47;24.30;83.80
1468;DHT22;727;48.892;9.544;2022-07-23T00:44:15;24.30;83.10
1468;DHT22;727;48.892;9.544;2022-07-23T00:46:46;24.20;83.30
1468;DHT22;727;48.892;9.544;2022-07-23T00:49:12;24.30;81.70
1468;DHT22;727;48.892;9.544;2022-07-23T00:51:41;24.30;81.10
1468;DHT22;727;48.892;9.544;2022-07-23T00:54:08;24.30;80.40
1468;DHT22;727;48.892;9.544;2022-07-23T00:56:34;24.40;78.20
1468;DHT22;727;48.892;9.544;2022-07-23T00:59:01;24.50;78.00
1468;DHT22;727;48.892;9.544;2022-07-23T01:01:28;24.50;77.20
1468;DHT22;727;48.892;9.544;2022-07-23T01:03:55;24.60;77.50
1468;DHT22;727;48.892;9.544;2022-07-23T01:06:21;24.60;79.80
1468;DHT22;727;48.892;9.544;2022-07-23T01:08:49;24.50;82.30
1468;DHT22;727;48.892;9.544;2022-07-23T01:11:17;24.40;83.30
1468;DHT22;727;48.892;9.544;2022-07-23T01:13:44;24.20;85.60
1468;DHT22;727;48.892;9.544;2022-07-23T01:16:11;24.00;86.00
1468;DHT22;727;48.892;9.544;2022-07-23T01:18:38;23.70;86.50
1468;DHT22;727;48.892;9.544;2022-07-23T01:21:05;23.60;86.40
1468;DHT22;727;48.892;9.544;2022-07-23T01:23:33;23.50;86.40
1468;DHT22;727;48.892;9.544;2022-07-23T01:26:00;23.40;87.00
1468;DHT22;727;48.892;9.544;2022-07-23T01:28:27;23.30;87.30
1468;DHT22;727;48.892;9.544;2022-07-23T01:30:53;23.20;89.20
1468;DHT22;727;48.892;9.544;2022-07-23T01:33:20;23.00;90.10
1468;DHT22;727;48.892;9.544;2022-07-23T01:35:46;22.90;90.10
1468;DHT22;727;48.892;9.544;2022-07-23T01:38:13;22.80;90.50
1468;DHT22;727;48.892;9.544;2022-07-23T01:40:41;22.60;90.90
1468;DHT22;727;48.892;9.544;2022-07-23T01:43:08;22.50;91.50
1468;DHT22;727;48.892;9.544;2022-07-23T01:45:34;22.50;91.60
1468;DHT22;727;48.892;9.544;2022-07-23T01:48:01;22.40;92.20
1468;DHT22;727;48.892;9.544;2022-07-23T01:50:28;22.30;92.40
1468;DHT22;727;48.892;9.544;2022-07-23T01:52:54;22.20;92.50
1468;DHT22;727;48.892;9.544;2022-07-23T01:55:21;22.10;93.20
1468;DHT22;727;48.892;9.544;2022-07-23T01:57:49;22.00;93.50
1468;DHT22;727;48.892;9.544;2022-07-23T02:00:15;21.90;93.90
1468;DHT22;727;48.892;9.544;2022-07-23T02:02:42;21.80;94.40
1468;DHT22;727;48.892;9.544;2022-07-23T02:05:09;21.70;94.70
1468;DHT22;727;48.892;9.544;2022-07-23T02:07:36;21.60;95.10
1468;DHT22;727;48.892;9.544;2022-07-23T02:10:03;21.60;95.40
1468;DHT22;727;48.892;9.544;2022-07-23T02:12:30;21.60;95.60
1468;DHT22;727;48.892;9.544;2022-07-23T02:14:58;21.50;95.70
1468;DHT22;727;48.892;9.544;2022-07-23T02:17:25;21.50;95.70
1468;DHT22;727;48.892;9.544;2022-07-23T02:19:51;21.50;95.80
1468;DHT22;727;48.892;9.544;2022-07-23T02:22:18;21.50;95.70
1468;DHT22;727;48.892;9.544;2022-07-23T02:24:45;21.40;96.10
1468;DHT22;727;48.892;9.544;2022-07-23T02:27:11;21.40;96.20
1468;DHT22;727;48.892;9.544;2022-07-23T02:29:38;21.30;96.30
1468;DHT22;727;48.892;9.544;2022-07-23T02:32:07;21.20;96.40
1468;DHT22;727;48.892;9.544;2022-07-23T02:34:33;21.20;96.40
1468;DHT22;727;48.892;9.544;2022-07-23T02:37:00;21.10;96.90
1468;DHT22;727;48.892;9.544;2022-07-23T02:39:27;21.00;97.30
1468;DHT22;727;48.892;9.544;2022-07-23T02:41:54;20.90;97.20
1468;DHT22;727;48.892;9.544;2022-07-23T02:44:21;20.80;97.40
1468;DHT22;727;48.892;9.544;2022-07-23T02:46:47;20.70;97.50
1468;DHT22;727;48.892;9.544;2022-07-23T02:49:15;20.70;97.80
1468;DHT22;727;48.892;9.544;2022-07-23T02:51:42;20.60;98.00
1468;DHT22;727;48.892;9.544;2022-07-23T02:54:09;20.60;98.40
1468;DHT22;727;48.892;9.544;2022-07-23T02:56:35;20.50;98.50
1468;DHT22;727;48.892;9.544;2022-07-23T02:59:02;20.50;98.70
1468;DHT22;727;48.892;9.544;2022-07-23T03:01:29;20.40;98.50
1468;DHT22;727;48.892;9.544;2022-07-23T03:03:55;20.40;99.00
1468;DHT22;727;48.892;9.544;2022-07-23T03:06:23;20.30;99.30
1468;DHT22;727;48.892;9.544;2022-07-23T03:08:52;20.30;99.40
1468;DHT22;727;48.892;9.544;2022-07-23T03:11:19;20.30;99.20
1468;DHT22;727;48.892;9.544;2022-07-23T03:13:45;20.20;99.40
1468;DHT22;727;48.892;9.544;2022-07-23T03:16:12;20.10;99.50
1468;DHT22;727;48.892;9.544;2022-07-23T03:18:39;20.00;99.60
1468;DHT22;727;48.892;9.544;2022-07-23T03:21:06;20.00;99.90
1468;DHT22;727;48.892;9.544;2022-07-23T03:23:34;19.90;99.90
1468;DHT22;727;48.892;9.544;2022-07-23T03:26:01;19.90;99.90
1468;DHT22;727;48.892;9.544;2022-07-23T03:28:27;19.80;99.90
1468;DHT22;727;48.892;9.544;2022-07-23T03:30:54;19.80;99.90
1468;DHT22;727;48.892;9.544;2022-07-23T03:33:21;19.90;99.90
1468;DHT22;727;48.892;9.544;2022-07-23T03:35:48;19.80;99.90
1468;DHT22;727;48.892;9.544;2022-07-23T03:38:15;19.90;99.90
1468;DHT22;727;48.892;9.544;2022-07-23T03:40:43;19.80;99.90
1468;DHT22;727;48.892;9.544;2022-07-23T03:43:10;19.70;99.90
1468;DHT22;727;48.892;9.544;2022-07-23T03:45:36;19.70;99.90
1468;DHT22;727;48.892;9.544;2022-07-23T03:48:03;19.60;99.90
1468;DHT22;727;48.892;9.544;2022-07-23T03:50:30;19.60;99.90
1468;DHT22;727;48.892;9.544;2022-07-23T03:52:56;19.60;99.90
1468;DHT22;727;48.892;9.544;2022-07-23T03:55:23;19.60;99.90
1468;DHT22;727;48.892;9.544;2022-07-23T03:57:51;19.50;99.90
1468;DHT22;727;48.892;9.544;2022-07-23T04:00:18;19.50;99.90
1468;DHT22;727;48.892;9.544;2022-07-23T04:02:44;19.60;99.90
1468;DHT22;727;48.892;9.544;2022-07-23T04:05:11;19.50;99.90
1468;DHT22;727;48.892;9.544;2022-07-23T04:07:38;19.60;99.90
1468;DHT22;727;48.892;9.544;2022-07-23T04:10:06;19.60;99.90
1468;DHT22;727;48.892;9.544;2022-07-23T04:12:33;19.60;99.90
1468;DHT22;727;48.892;9.544;2022-07-23T04:15:01;19.60;99.90
1468;DHT22;727;48.892;9.544;2022-07-23T04:17:27;19.60;99.90
1468;DHT22;727;48.892;9.544;2022-07-23T04:19:54;19.70;99.90
1468;DHT22;727;48.892;9.544;2022-07-23T04:22:21;19.70;99.90
1468;DHT22;727;48.892;9.544;2022-07-23T04:24:47;19.80;99.90
1468;DHT22;727;48.892;9.544;2022-07-23T04:27:14;19.90;99.90
1468;DHT22;727;48.892;9.544;2022-07-23T04:29:41;20.00;99.90
1468;DHT22;727;48.892;9.544;2022-07-23T04:32:09;20.20;99.90
1468;DHT22;727;48.892;9.544;2022-07-23T04:34:35;20.70;99.90
1468;DHT22;727;48.892;9.544;2022-07-23T04:37:02;21.00;99.90
1468;DHT22;727;48.892;9.544;2022-07-23T04:39:29;21.20;99.90
1468;DHT22;727;48.892;9.544;2022-07-23T04:41:56;21.40;99.90
1468;DHT22;727;48.892;9.544;2022-07-23T04:44:22;21.60;99.90
1468;DHT22;727;48.892;9.544;2022-07-23T04:46:49;21.90;99.10
1468;DHT22;727;48.892;9.544;2022-07-23T04:49:17;22.30;97.90
1468;DHT22;727;48.892;9.544;2022-07-23T04:51:43;22.60;97.40
1468;DHT22;727;48.892;9.544;2022-07-23T04:54:10;23.00;96.80
1468;DHT22;727;48.892;9.544;2022-07-23T04:56:37;23.30;96.10
1468;DHT22;727;48.892;9.544;2022-07-23T04:59:03;23.70;95.70
1468;DHT22;727;48.892;9.544;2022-07-23T05:01:30;23.90;95.10
1468;DHT22;727;48.892;9.544;2022-07-23T05:03:56;23.80;94.50
1468;DHT22;727;48.892;9.544;2022-07-23T05:06:24;23.60;94.10
1468;DHT22;727;48.892;9.544;2022-07-23T05:08:51;23.00;94.60
1468;DHT22;727;48.892;9.544;2022-07-23T05:11:18;22.60;95.80
1468;DHT22;727;48.892;9.544;2022-07-23T05:13:44;22.50;96.60
1468;DHT22;727;48.892;9.544;2022-07-23T05:16:11;22.60;97.20
1468;DHT22;727;48.892;9.544;2022-07-23T05:18:38;22.80;97.50
1468;DHT22;727;48.892;9.544;2022-07-23T05:21:04;23.60;96.80
1468;DHT22;727;48.892;9.544;2022-07-23T05:23:32;24.80;95.20
1468;DHT22;727;48.892;9.544;2022-07-23T05:25:59;25.30;91.90
1468;DHT22;727;48.892;9.544;2022-07-23T05:28:26;25.10;91.10
1468;DHT22;727;48.892;9.544;2022-07-23T05:30:52;24.50;91.60
1468;DHT22;727;48.892;9.544;2022-07-23T05:33:19;24.10;92.80
1468;DHT22;727;48.892;9.544;2022-07-23T05:35:46;23.90;94.70
1468;DHT22;727;48.892;9.544;2022-07-23T05:38:12;24.90;93.80
1468;DHT22;727;48.892;9.544;2022-07-23T05:40:40;26.00;91.60
1468;DHT22;727;48.892;9.544;2022-07-23T05:43:07;27.10;87.80
1468;DHT22;727;48.892;9.544;2022-07-23T05:45:34;28.00;83.80
1468;DHT22;727;48.892;9.544;2022-07-23T05:48:00;28.90;78.00
1468;DHT22;727;48.892;9.544;2022-07-23T05:50:27;29.50;74.10
1468;DHT22;727;48.892;9.544;2022-07-23T05:52:54;29.90;71.60
1468;DHT22;727;48.892;9.544;2022-07-23T05:55:20;29.50;70.60
1468;DHT22;727;48.892;9.544;2022-07-23T05:57:48;28.30;74.60
1468;DHT22;727;48.892;9.544;2022-07-23T06:00:15;27.40;78.50
1468;DHT22;727;48.892;9.544;2022-07-23T06:02:42;26.70;82.30
1468;DHT22;727;48.892;9.544;2022-07-23T06:05:09;26.00;85.50
1468;DHT22;727;48.892;9.544;2022-07-23T06:07:35;25.40;88.50
1468;DHT22;727;48.892;9.544;2022-07-23T06:10:02;25.00;90.00
1468;DHT22;727;48.892;9.544;2022-07-23T06:12:29;24.70;90.80
1468;DHT22;727;48.892;9.544;2022-07-23T06:14:58;24.50;92.40
1468;DHT22;727;48.892;9.544;2022-07-23T06:17:24;24.40;93.50
1468;DHT22;727;48.892;9.544;2022-07-23T06:19:52;24.60;94.00
1468;DHT22;727;48.892;9.544;2022-07-23T06:22:19;24.90;93.30
1468;DHT22;727;48.892;9.544;2022-07-23T06:24:45;25.30;92.60
1468;DHT22;727;48.892;9.544;2022-07-23T06:27:12;25.60;91.30
1468;DHT22;727;48.892;9.544;2022-07-23T06:29:39;25.80;88.80
1468;DHT22;727;48.892;9.544;2022-07-23T06:32:07;26.00;85.40
1468;DHT22;727;48.892;9.544;2022-07-23T06:34:35;26.10;86.00
1468;DHT22;727;48.892;9.544;2022-07-23T06:37:04;26.30;84.30
1468;DHT22;727;48.892;9.544;2022-07-23T06:39:31;26.40;83.70
1468;DHT22;727;48.892;9.544;2022-07-23T06:41:57;26.60;82.20
1468;DHT22;727;48.892;9.544;2022-07-23T06:44:24;27.10;81.00
1468;DHT22;727;48.892;9.544;2022-07-23T06:46:51;27.30;79.80
1468;DHT22;727;48.892;9.544;2022-07-23T06:49:19;27.50;79.60
1468;DHT22;727;48.892;9.544;2022-07-23T06:51:46;27.50;76.90
1468;DHT22;727;48.892;9.544;2022-07-23T06:54:14;27.60;76.90
1468;DHT22;727;48.892;9.544;2022-07-23T06:56:40;27.30;75.60
1468;DHT22;727;48.892;9.544;2022-07-23T06:59:08;27.50;74.10
1468;DHT22;727;48.892;9.544;2022-07-23T07:01:35;27.70;73.70
1468;DHT22;727;48.892;9.544;2022-07-23T07:04:03;28.00;71.40
1468;DHT22;727;48.892;9.544;2022-07-23T07:06:31;28.30;70.60
1468;DHT22;727;48.892;9.544;2022-07-23T07:08:57;28.60;69.70
1468;DHT22;727;48.892;9.544;2022-07-23T07:11:24;28.70;68.70
1468;DHT22;727;48.892;9.544;2022-07-23T07:13:51;28.50;69.60
1468;DHT22;727;48.892;9.544;2022-07-23T07:16:18;28.40;69.90
1468;DHT22;727;48.892;9.544;2022-07-23T07:18:45;28.20;70.40
1468;DHT22;727;48.892;9.544;2022-07-23T07:21:12;27.90;71.80
1468;DHT22;727;48.892;9.544;2022-07-23T07:23:40;27.60;73.10
1468;DHT22;727;48.892;9.544;2022-07-23T07:26:06;27.10;74.60
1468;DHT22;727;48.892;9.544;2022-07-23T07:28:33;26.70;76.20
1468;DHT22;727;48.892;9.544;2022-07-23T07:31:00;26.20;76.80
1468;DHT22;727;48.892;9.544;2022-07-23T07:33:27;25.70;79.10
1468;DHT22;727;48.892;9.544;2022-07-23T07:35:54;25.50;80.90
1468;DHT22;727;48.892;9.544;2022-07-23T07:38:21;25.20;82.00
1468;DHT22;727;48.892;9.544;2022-07-23T07:40:49;24.90;83.00
1468;DHT22;727;48.892;9.544;2022-07-23T07:43:16;24.80;83.90
1468;DHT22;727;48.892;9.544;2022-07-23T07:45:44;24.60;84.90
1468;DHT22;727;48.892;9.544;2022-07-23T07:48:11;24.60;85.00
1468;DHT22;727;48.892;9.544;2022-07-23T07:50:38;24.50;85.10
1468;DHT22;727;48.892;9.544;2022-07-23T07:53:05;24.30;86.70
1468;DHT22;727;48.892;9.544;2022-07-23T07:55:32;24.20;87.30
1468;DHT22;727;48.892;9.544;2022-07-23T07:58:02;24.20;88.20
1468;DHT22;727;48.892;9.544;2022-07-23T08:00:30;24.20;87.90
1468;DHT22;727;48.892;9.544;2022-07-23T08:02:58;24.30;88.40
1468;DHT22;727;48.892;9.544;2022-07-23T08:05:28;24.20;88.90
1468;DHT22;727;48.892;9.544;2022-07-23T08:07:56;24.10;89.20
1468;DHT22;727;48.892;9.544;2022-07-23T08:10:23;24.00;89.00
1468;DHT22;727;48.892;9.544;2022-07-23T08:12:51;24.00;90.60
1468;DHT22;727;48.892;9.544;2022-07-23T08:15:21;24.00;89.30
1468;DHT22;727;48.892;9.544;2022-07-23T08:17:49;24.00;89.90
1468;DHT22;727;48.892;9.544;2022-07-23T08:20:18;24.30;90.60
1468;DHT22;727;48.892;9.544;2022-07-23T08:23:02;24.60;89.60
1468;DHT22;727;48.892;9.544;2022-07-23T08:25:30;25.10;87.20
1468;DHT22;727;48.892;9.544;2022-07-23T08:27:59;25.70;85.60
1468;DHT22;727;48.892;9.544;2022-07-23T08:30:32;25.80;84.70
1468;DHT22;727;48.892;9.544;2022-07-23T08:33:04;25.90;84.60
1468;DHT22;727;48.892;9.544;2022-07-23T08:35:40;25.90;83.70
1468;DHT22;727;48.892;9.544;2022-07-23T08:38:11;25.80;83.30
1468;DHT22;727;48.892;9.544;2022-07-23T08:40:40;25.80;83.20
1468;DHT22;727;48.892;9.544;2022-07-23T08:43:10;25.70;83.00
1468;DHT22;727;48.892;9.544;2022-07-23T08:45:45;25.60;82.40
1468;DHT22;727;48.892;9.544;2022-07-23T08:48:14;25.60;84.10
1468;DHT22;727;48.892;9.544;2022-07-23T08:50:43;25.70;84.60
1468;DHT22;727;48.892;9.544;2022-07-23T08:53:49;25.80;82.60
1468;DHT22;727;48.892;9.544;2022-07-23T08:56:19;25.90;83.10
1468;DHT22;727;48.892;9.544;2022-07-23T09:04:21;25.20;85.40
1468;DHT22;727;48.892;9.544;2022-07-23T09:06:48;25.10;88.10
1468;DHT22;727;48.892;9.544;2022-07-23T09:09:19;25.10;90.50
1468;DHT22;727;48.892;9.544;2022-07-23T09:11:46;25.20;89.90
1468;DHT22;727;48.892;9.544;2022-07-23T09:14:13;25.30;88.10
1468;DHT22;727;48.892;9.544;2022-07-23T09:16:41;25.30;88.50
1468;DHT22;727;48.892;9.544;2022-07-23T09:19:09;25.50;87.60
1468;DHT22;727;48.892;9.544;2022-07-23T09:21:43;26.30;85.40
1468;DHT22;727;48.892;9.544;2022-07-23T09:27:04;27.80;76.50
1468;DHT22;727;48.892;9.544;2022-07-23T09:29:33;28.20;75.70
1468;DHT22;727;48.892;9.544;2022-07-23T09:32:03;28.70;74.30
1468;DHT22;727;48.892;9.544;2022-07-23T09:34:36;29.30;71.50
1468;DHT22;727;48.892;9.544;2022-07-23T09:37:11;29.70;69.50
1468;DHT22;727;48.892;9.544;2022-07-23T09:39:39;29.60;69.80
1468;DHT22;727;48.892;9.544;2022-07-23T09:42:13;30.00;68.10
1468;DHT22;727;48.892;9.544;2022-07-23T09:44:43;30.20;67.90
1468;DHT22;727;48.892;9.544;2022-07-23T09:47:11;30.00;66.50
1468;DHT22;727;48.892;9.544;2022-07-23T09:49:37;30.10;67.20
1468;DHT22;727;48.892;9.544;2022-07-23T09:52:05;30.00;67.80
1468;DHT22;727;48.892;9.544;2022-07-23T09:54:35;30.10;66.80
1468;DHT22;727;48.892;9.544;2022-07-23T09:57:05;29.90;66.60
1468;DHT22;727;48.892;9.544;2022-07-23T09:59:35;29.60;67.20
1468;DHT22;727;48.892;9.544;2022-07-23T10:02:04;29.90;67.30
1468;DHT22;727;48.892;9.544;2022-07-23T10:04:31;30.30;67.20
1468;DHT22;727;48.892;9.544;2022-07-23T10:07:00;30.40;65.80
1468;DHT22;727;48.892;9.544;2022-07-23T10:09:29;30.20;65.60
1468;DHT22;727;48.892;9.544;2022-07-23T10:11:59;30.30;64.80
1468;DHT22;727;48.892;9.544;2022-07-23T10:14:47;30.20;64.30
1468;DHT22;727;48.892;9.544;2022-07-23T10:17:14;30.00;66.10
1468;DHT22;727;48.892;9.544;2022-07-23T10:19:41;30.40;64.50
1468;DHT22;727;48.892;9.544;2022-07-23T10:22:11;30.70;61.40
1468;DHT22;727;48.892;9.544;2022-07-23T10:24:46;30.90;61.80
1468;DHT22;727;48.892;9.544;2022-07-23T10:27:31;31.10;61.10
1468;DHT22;727;48.892;9.544;2022-07-23T10:30:03;31.00;60.00
1468;DHT22;727;48.892;9.544;2022-07-23T10:32:38;31.30;59.20
1468;DHT22;727;48.892;9.544;2022-07-23T10:35:10;31.80;56.90
1468;DHT22;727;48.892;9.544;2022-07-23T10:37:43;31.90;55.60
1468;DHT22;727;48.892;9.544;2022-07-23T10:40:12;32.10;55.90
1468;DHT22;727;48.892;9.544;2022-07-23T10:42:41;32.10;54.90
1468;DHT22;727;48.892;9.544;2022-07-23T10:45:25;31.90;54.70
1468;DHT22;727;48.892;9.544;2022-07-23T10:47:52;32.00;54.60
1468;DHT22;727;48.892;9.544;2022-07-23T10:50:22;31.90;54.20
1468;DHT22;727;48.892;9.544;2022-07-23T10:53:08;32.00;54.80
1468;DHT22;727;48.892;9.544;2022-07-23T10:55:42;32.30;53.90
1468;DHT22;727;48.892;9.544;2022-07-23T10:58:11;32.20;52.60
1468;DHT22;727;48.892;9.544;2022-07-23T11:00:37;32.30;53.10
1468;DHT22;727;48.892;9.544;2022-07-23T11:03:05;32.10;52.20
1468;DHT22;727;48.892;9.544;2022-07-23T11:05:51;32.30;52.10
1468;DHT22;727;48.892;9.544;2022-07-23T11:08:20;32.40;52.20
1468;DHT22;727;48.892;9.544;2022-07-23T11:10:49;32.60;52.30
1468;DHT22;727;48.892;9.544;2022-07-23T11:13:32;32.90;51.20
1468;DHT22;727;48.892;9.544;2022-07-23T11:16:23;32.90;51.20
1468;DHT22;727;48.892;9.544;2022-07-23T11:19:07;33.00;52.10
1468;DHT22;727;48.892;9.544;2022-07-23T11:21:47;33.10;51.10
1468;DHT22;727;48.892;9.544;2022-07-23T11:24:17;32.20;52.50
1468;DHT22;727;48.892;9.544;2022-07-23T11:26:57;31.80;54.00
1468;DHT22;727;48.892;9.544;2022-07-23T11:29:45;31.70;54.30
1468;DHT22;727;48.892;9.544;2022-07-23T11:32:32;31.50;53.30
1468;DHT22;727;48.892;9.544;2022-07-23T11:38:23;31.50;53.00
1468;DHT22;727;48.892;9.544;2022-07-23T11:40:50;31.00;54.10
1468;DHT22;727;48.892;9.544;2022-07-23T11:43:20;30.90;54.70
1468;DHT22;727;48.892;9.544;2022-07-23T11:45:50;31.20;54.00
1468;DHT22;727;48.892;9.544;2022-07-23T11:48:19;31.40;53.10
1468;DHT22;727;48.892;9.544;2022-07-23T11:50:47;31.50;53.00
1468;DHT22;727;48.892;9.544;2022-07-23T11:53:20;31.90;54.20
1468;DHT22;727;48.892;9.544;2022-07-23T11:55:47;32.00;52.50
1468;DHT22;727;48.892;9.544;2022-07-23T11:58:14;31.70;52.10
1468;DHT22;727;48.892;9.544;2022-07-23T12:00:41;32.00;53.30
1468;DHT22;727;48.892;9.544;2022-07-23T12:03:10;32.10;52.40
1468;DHT22;727;48.892;9.544;2022-07-23T12:05:38;32.30;51.70
1468;DHT22;727;48.892;9.544;2022-07-23T12:08:07;32.30;51.30
1468;DHT22;727;48.892;9.544;2022-07-23T12:10:35;32.10;50.50
1468;DHT22;727;48.892;9.544;2022-07-23T12:13:04;32.00;50.80
1468;DHT22;727;48.892;9.544;2022-07-23T12:15:33;31.90;51.70
1468;DHT22;727;48.892;9.544;2022-07-23T12:18:04;31.90;51.80
1468;DHT22;727;48.892;9.544;2022-07-23T12:20:34;31.50;51.10
1468;DHT22;727;48.892;9.544;2022-07-23T12:23:04;31.20;50.80
1468;DHT22;727;48.892;9.544;2022-07-23T12:25:33;31.20;52.50
1468;DHT22;727;48.892;9.544;2022-07-23T12:28:03;31.30;53.90
1468;DHT22;727;48.892;9.544;2022-07-23T12:30:32;31.60;54.40
1468;DHT22;727;48.892;9.544;2022-07-23T12:33:00;32.00;54.00
1468;DHT22;727;48.892;9.544;2022-07-23T12:35:39;31.90;53.50
1468;DHT22;727;48.892;9.544;2022-07-23T12:38:08;31.80;53.70
1468;DHT22;727;48.892;9.544;2022-07-23T12:40:42;31.70;54.00
1468;DHT22;727;48.892;9.544;2022-07-23T12:43:10;31.50;54.70
1468;DHT22;727;48.892;9.544;2022-07-23T12:45:43;31.70;54.10
1468;DHT22;727;48.892;9.544;2022-07-23T12:48:20;32.10;53.70
1468;DHT22;727;48.892;9.544;2022-07-23T12:50:57;32.40;53.10
1468;DHT22;727;48.892;9.544;2022-07-23T12:53:26;31.90;52.20
1468;DHT22;727;48.892;9.544;2022-07-23T12:55:59;31.30;53.90
1468;DHT22;727;48.892;9.544;2022-07-23T12:58:26;31.40;54.80
1468;DHT22;727;48.892;9.544;2022-07-23T13:01:02;31.70;54.90
1468;DHT22;727;48.892;9.544;2022-07-23T13:03:36;31.70;54.70
1468;DHT22;727;48.892;9.544;2022-07-23T13:06:05;31.70;55.30
1468;DHT22;727;48.892;9.544;2022-07-23T13:08:33;31.80;55.00
1468;DHT22;727;48.892;9.544;2022-07-23T13:11:01;31.90;54.20
1468;DHT22;727;48.892;9.544;2022-07-23T13:13:29;31.70;54.70
1468;DHT22;727;48.892;9.544;2022-07-23T13:15:57;31.50;55.30
1468;DHT22;727;48.892;9.544;2022-07-23T13:18:25;31.50;55.70
1468;DHT22;727;48.892;9.544;2022-07-23T13:20:52;31.60;54.70
1468;DHT22;727;48.892;9.544;2022-07-23T13:23:20;31.60;55.10
1468;DHT22;727;48.892;9.544;2022-07-23T13:25:47;31.50;54.90
1468;DHT22;727;48.892;9.544;2022-07-23T13:28:15;31.60;56.40
1468;DHT22;727;48.892;9.544;2022-07-23T13:30:42;31.70;55.10
1468;DHT22;727;48.892;9.544;2022-07-23T13:33:10;31.70;54.20
1468;DHT22;727;48.892;9.544;2022-07-23T13:35:37;31.30;54.80
1468;DHT22;727;48.892;9.544;2022-07-23T13:38:05;31.30;54.50
1468;DHT22;727;48.892;9.544;2022-07-23T13:40:35;31.50;55.10
1468;DHT22;727;48.892;9.544;2022-07-23T13:43:04;31.50;54.20
1468;DHT22;727;48.892;9.544;2022-07-23T13:45:31;31.50;55.10
1468;DHT22;727;48.892;9.544;2022-07-23T13:47:57;31.70;54.00
1468;DHT22;727;48.892;9.544;2022-07-23T13:50:24;31.60;54.20
1468;DHT22;727;48.892;9.544;2022-07-23T13:52:51;31.50;54.40
1468;DHT22;727;48.892;9.544;2022-07-23T13:55:17;31.30;54.70
1468;DHT22;727;48.892;9.544;2022-07-23T13:57:45;30.90;55.90
1468;DHT22;727;48.892;9.544;2022-07-23T14:00:13;30.80;55.40
1468;DHT22;727;48.892;9.544;2022-07-23T14:02:40;31.10;55.70
1468;DHT22;727;48.892;9.544;2022-07-23T14:05:09;31.10;55.30
1468;DHT22;727;48.892;9.544;2022-07-23T14:07:36;31.00;55.40
1468;DHT22;727;48.892;9.544;2022-07-23T14:10:04;30.80;55.70
1468;DHT22;727;48.892;9.544;2022-07-23T14:12:31;30.70;56.30
1468;DHT22;727;48.892;9.544;2022-07-23T14:14:59;30.80;56.20
1468;DHT22;727;48.892;9.544;2022-07-23T14:17:26;31.20;55.80
1468;DHT22;727;48.892;9.544;2022-07-23T14:19:53;31.50;54.80
1468;DHT22;727;48.892;9.544;2022-07-23T14:22:19;31.70;54.60
1468;DHT22;727;48.892;9.544;2022-07-23T14:24:46;31.90;54.40
1468;DHT22;727;48.892;9.544;2022-07-23T14:27:12;32.00;53.30
1468;DHT22;727;48.892;9.544;2022-07-23T14:29:39;31.90;53.50
1468;DHT22;727;48.892;9.544;2022-07-23T14:32:07;31.80;54.00
1468;DHT22;727;48.892;9.544;2022-07-23T14:34:34;32.00;53.10
1468;DHT22;727;48.892;9.544;2022-07-23T14:37:01;32.10;53.10
1468;DHT22;727;48.892;9.544;2022-07-23T14:39:28;31.90;53.30
1468;DHT22;727;48.892;9.544;2022-07-23T14:41:54;31.80;53.60
1468;DHT22;727;48.892;9.544;2022-07-23T14:44:21;31.70;53.10
1468;DHT22;727;48.892;9.544;2022-07-23T14:46:48;31.60;55.40
1468;DHT22;727;48.892;9.544;2022-07-23T14:49:16;31.40;54.60
1468;DHT22;727;48.892;9.544;2022-07-23T14:51:43;31.30;55.10
1468;DHT22;727;48.892;9.544;2022-07-23T14:54:10;31.40;54.10
1468;DHT22;727;48.892;9.544;2022-07-23T14:56:37;31.50;53.80
1468;DHT22;727;48.892;9.544;2022-07-23T14:59:04;31.50;54.50
1468;DHT22;727;48.892;9.544;2022-07-23T15:01:31;31.30;54.00
1468;DHT22;727;48.892;9.544;2022-07-23T15:03:58;31.00;55.20
1468;DHT22;727;48.892;9.544;2022-07-23T15:06:26;31.30;56.30
1468;DHT22;727;48.892;9.544;2022-07-23T15:08:52;31.70;51.80
1468;DHT22;727;48.892;9.544;2022-07-23T15:11:19;32.00;51.40
1468;DHT22;727;48.892;9.544;2022-07-23T15:13:46;32.10;51.80
1468;DHT22;727;48.892;9.544;2022-07-23T15:16:13;31.90;51.80
1468;DHT22;727;48.892;9.544;2022-07-23T15:18:40;31.50;53.00
1468;DHT22;727;48.892;9.544;2022-07-23T15:21:07;31.50;51.90
1468;DHT22;727;48.892;9.544;2022-07-23T15:23:35;31.20;52.30
1468;DHT22;727;48.892;9.544;2022-07-23T15:26:05;30.80;52.40
1468;DHT22;727;48.892;9.544;2022-07-23T15:28:32;30.70;53.50
1468;DHT22;727;48.892;9.544;2022-07-23T15:30:59;30.60;53.40
1468;DHT22;727;48.892;9.544;2022-07-23T15:33:26;30.40;53.30
1468;DHT22;727;48.892;9.544;2022-07-23T15:35:53;30.40;54.70
1468;DHT22;727;48.892;9.544;2022-07-23T15:38:20;30.80;53.30
1468;DHT22;727;48.892;9.544;2022-07-23T15:40:48;31.00;53.70
1468;DHT22;727;48.892;9.544;2022-07-23T15:43:15;31.40;52.90
1468;DHT22;727;48.892;9.544;2022-07-23T15:45:43;31.70;51.60
1468;DHT22;727;48.892;9.544;2022-07-23T15:48:10;31.70;51.20
1468;DHT22;727;48.892;9.544;2022-07-23T15:50:38;31.60;50.90
1468;DHT22;727;48.892;9.544;2022-07-23T15:53:05;31.40;53.30
1468;DHT22;727;48.892;9.544;2022-07-23T15:55:31;31.60;52.50
1468;DHT22;727;48.892;9.544;2022-07-23T15:58:00;31.50;52.90
1468;DHT22;727;48.892;9.544;2022-07-23T16:00:27;31.40;52.40
1468;DHT22;727;48.892;9.544;2022-07-23T16:02:53;31.50;52.60
1468;DHT22;727;48.892;9.544;2022-07-23T16:05:20;31.40;52.20
1468;DHT22;727;48.892;9.544;2022-07-23T16:07:47;31.20;51.90
1468;DHT22;727;48.892;9.544;2022-07-23T16:10:14;31.00;52.50
1468;DHT22;727;48.892;9.544;2022-07-23T16:12:40;31.00;53.60
1468;DHT22;727;48.892;9.544;2022-07-23T16:15:09;31.00;54.20
1468;DHT22;727;48.892;9.544;2022-07-23T16:17:36;31.00;52.90
1468;DHT22;727;48.892;9.544;2022-07-23T16:20:04;31.00;53.50
1468;DHT22;727;48.892;9.544;2022-07-23T16:22:32;31.00;53.60
1468;DHT22;727;48.892;9.544;2022-07-23T16:24:59;30.90;54.20
1468;DHT22;727;48.892;9.544;2022-07-23T16:27:25;30.90;54.50
1468;DHT22;727;48.892;9.544;2022-07-23T16:29:52;31.00;54.50
1468;DHT22;727;48.892;9.544;2022-07-23T16:32:21;31.10;53.70
1468;DHT22;727;48.892;9.544;2022-07-23T16:34:48;31.10;53.70